ALK104 VRMM-VCBI
Flight info
| Callsign | ALK104 |
|---|---|
| Flight time | 1h 13m |
| Altitude | 39000 |
| Route | HOKEY1A HOKEY M512 TELIG LALUM1A |
| Aircraft | A20N/M-SDE2E3FGHIRWXY/LB1 |
Departure
| Time | 2026-04-28 02:03 |
|---|---|
| Airport | Velana International Airport (VRMM) |
Arrival
| Time | 2026-04-28 03:16 |
|---|---|
| Airport | Bandaranaike International Colombo Airport (VCBI) |
| Time | Latitude | Longitude | Altitude | Speed | Heading |
|---|---|---|---|---|---|
| 2026-04-28 01:51 | 4.18872 | 73.52795 | 15 ft | 0 kts | 269° |
| 2026-04-28 01:54 | 4.18872 | 73.52803 | 15 ft | 3 kts | 269° |
| 2026-04-28 01:54 | 4.18872 | 73.52812 | 17 ft | 0 kts | 269° |
| 2026-04-28 01:55 | 4.18873 | 73.52820 | 18 ft | 3 kts | 269° |
| 2026-04-28 01:55 | 4.18875 | 73.52839 | 19 ft | 3 kts | 239° |
| 2026-04-28 01:55 | 4.18889 | 73.52852 | 18 ft | 3 kts | 198° |
| 2026-04-28 01:55 | 4.18894 | 73.52854 | 17 ft | 0 kts | 187° |
| 2026-04-28 01:59 | 4.18874 | 73.52852 | 18 ft | 6 kts | 185° |
| 2026-04-28 01:59 | 4.18808 | 73.52851 | 15 ft | 11 kts | 179° |
| 2026-04-28 02:00 | 4.18724 | 73.52853 | 15 ft | 12 kts | 178° |
| 2026-04-28 02:00 | 4.18639 | 73.52857 | 15 ft | 12 kts | 167° |
| 2026-04-28 02:00 | 4.18594 | 73.52916 | 15 ft | 10 kts | 144° |
| 2026-04-28 02:00 | 4.18549 | 73.52964 | 16 ft | 9 kts | 98° |
| 2026-04-28 02:01 | 4.18548 | 73.52970 | 16 ft | 0 kts | 96° |
| 2026-04-28 02:01 | 4.18548 | 73.52973 | 16 ft | 2 kts | 95° |
| 2026-04-28 02:02 | 4.18546 | 73.53002 | 16 ft | 7 kts | 91° |
| 2026-04-28 02:02 | 4.18546 | 73.53058 | 16 ft | 11 kts | 91° |
| 2026-04-28 02:02 | 4.18639 | 73.53104 | 16 ft | 38 kts | 358° |
| 2026-04-28 02:02 | 4.19139 | 73.53102 | 16 ft | 104 kts | 360° |
| 2026-04-28 02:03 | 4.20055 | 73.53100 | 17 ft | 157 kts | 360° |
| 2026-04-28 02:03 | 4.21179 | 73.53139 | 446 ft | 161 kts | 1° |
| 2026-04-28 02:03 | 4.22306 | 73.53172 | 956 ft | 163 kts | 358° |
| 2026-04-28 02:03 | 4.23431 | 73.53140 | 1618 ft | 160 kts | 355° |
| 2026-04-28 02:04 | 4.24646 | 73.53121 | 2026 ft | 195 kts | 358° |
| 2026-04-28 02:04 | 4.26128 | 73.53121 | 2320 ft | 230 kts | 358° |
| 2026-04-28 02:04 | 4.27807 | 73.53104 | 2795 ft | 251 kts | 358° |
| 2026-04-28 02:04 | 4.29604 | 73.53074 | 3450 ft | 264 kts | 358° |
| 2026-04-28 02:05 | 4.31464 | 73.53050 | 4212 ft | 269 kts | 359° |
| 2026-04-28 02:05 | 4.33117 | 73.53053 | 4969 ft | 271 kts | 0° |
| 2026-04-28 02:05 | 4.35009 | 73.53095 | 5817 ft | 272 kts | 1° |
| 2026-04-28 02:05 | 4.36909 | 73.53147 | 6622 ft | 275 kts | 0° |
| 2026-04-28 02:06 | 4.38820 | 73.53221 | 7443 ft | 274 kts | 13° |
| 2026-04-28 02:06 | 4.40592 | 73.53877 | 8175 ft | 276 kts | 44° |
| 2026-04-28 02:06 | 4.41754 | 73.55388 | 8773 ft | 282 kts | 66° |
| 2026-04-28 02:06 | 4.42221 | 73.57287 | 9449 ft | 287 kts | 85° |
| 2026-04-28 02:07 | 4.42277 | 73.59289 | 10233 ft | 289 kts | 89° |
| 2026-04-28 02:07 | 4.42269 | 73.61349 | 10675 ft | 304 kts | 90° |
| 2026-04-28 02:07 | 4.42213 | 73.63529 | 10982 ft | 322 kts | 91° |
| 2026-04-28 02:07 | 4.42173 | 73.65815 | 11371 ft | 334 kts | 89° |
| 2026-04-28 02:08 | 4.42178 | 73.68162 | 11970 ft | 338 kts | 89° |
| 2026-04-28 02:08 | 4.42177 | 73.70523 | 12681 ft | 340 kts | 90° |
| 2026-04-28 02:08 | 4.42167 | 73.72895 | 13366 ft | 342 kts | 90° |
| 2026-04-28 02:08 | 4.42172 | 73.75291 | 13975 ft | 345 kts | 88° |
| 2026-04-28 02:09 | 4.42433 | 73.77686 | 14602 ft | 347 kts | 78° |
| 2026-04-28 02:09 | 4.42975 | 73.80020 | 15425 ft | 343 kts | 76° |
| 2026-04-28 02:09 | 4.43536 | 73.82345 | 16068 ft | 346 kts | 76° |
| 2026-04-28 02:09 | 4.44113 | 73.84712 | 16587 ft | 352 kts | 76° |
| 2026-04-28 02:10 | 4.44687 | 73.87113 | 17156 ft | 356 kts | 77° |
| 2026-04-28 02:10 | 4.45228 | 73.89546 | 17744 ft | 359 kts | 78° |
| 2026-04-28 02:10 | 4.45746 | 73.92003 | 18296 ft | 362 kts | 78° |
| 2026-04-28 02:10 | 4.46286 | 73.94481 | 18731 ft | 366 kts | 77° |
| 2026-04-28 02:11 | 4.46839 | 73.96978 | 19192 ft | 369 kts | 77° |
| 2026-04-28 02:11 | 4.47388 | 73.99497 | 19654 ft | 371 kts | 77° |
| 2026-04-28 02:11 | 4.47965 | 74.02029 | 20122 ft | 374 kts | 77° |
| 2026-04-28 02:11 | 4.48558 | 74.04571 | 20569 ft | 377 kts | 76° |
| 2026-04-28 02:12 | 4.49154 | 74.07142 | 21003 ft | 380 kts | 76° |
| 2026-04-28 02:12 | 4.49751 | 74.09736 | 21443 ft | 383 kts | 76° |
| 2026-04-28 02:12 | 4.50349 | 74.12348 | 21881 ft | 387 kts | 76° |
| 2026-04-28 02:12 | 4.50951 | 74.14982 | 22352 ft | 389 kts | 76° |
| 2026-04-28 02:13 | 4.51557 | 74.17630 | 22829 ft | 391 kts | 76° |
| 2026-04-28 02:13 | 4.52168 | 74.20290 | 23315 ft | 393 kts | 76° |
| 2026-04-28 02:13 | 4.52782 | 74.22961 | 23733 ft | 395 kts | 76° |
| 2026-04-28 02:13 | 4.53403 | 74.25653 | 24103 ft | 398 kts | 76° |
| 2026-04-28 02:14 | 4.54030 | 74.28369 | 24431 ft | 402 kts | 76° |
| 2026-04-28 02:14 | 4.54748 | 74.31096 | 24751 ft | 407 kts | 70° |
| 2026-04-28 02:14 | 4.55628 | 74.33799 | 25133 ft | 409 kts | 71° |
| 2026-04-28 02:14 | 4.56510 | 74.36510 | 25544 ft | 411 kts | 72° |
| 2026-04-28 02:15 | 4.58225 | 74.41998 | 26288 ft | 416 kts | 73° |
| 2026-04-28 02:15 | 4.59071 | 74.44779 | 26634 ft | 418 kts | 73° |
| 2026-04-28 02:15 | 4.59913 | 74.47580 | 26985 ft | 421 kts | 73° |
| 2026-04-28 02:16 | 4.60767 | 74.50408 | 27183 ft | 427 kts | 72° |
| 2026-04-28 02:16 | 4.61671 | 74.53228 | 27373 ft | 434 kts | 72° |
| 2026-04-28 02:16 | 4.62634 | 74.56134 | 27811 ft | 432 kts | 72° |
| 2026-04-28 02:16 | 4.63524 | 74.58962 | 28336 ft | 430 kts | 73° |
| 2026-04-28 02:17 | 4.64402 | 74.61870 | 28692 ft | 432 kts | 73° |
| 2026-04-28 02:17 | 4.65279 | 74.64722 | 28939 ft | 436 kts | 73° |
| 2026-04-28 02:17 | 4.66181 | 74.67629 | 29234 ft | 439 kts | 73° |
| 2026-04-28 02:17 | 4.67081 | 74.70562 | 29470 ft | 442 kts | 73° |
| 2026-04-28 02:18 | 4.68002 | 74.73518 | 29748 ft | 445 kts | 74° |
| 2026-04-28 02:18 | 4.68915 | 74.76483 | 30120 ft | 445 kts | 73° |
| 2026-04-28 02:18 | 4.69820 | 74.79459 | 30356 ft | 448 kts | 73° |
| 2026-04-28 02:18 | 4.70737 | 74.82449 | 30573 ft | 451 kts | 73° |
| 2026-04-28 02:19 | 4.71667 | 74.85462 | 30756 ft | 454 kts | 73° |
| 2026-04-28 02:19 | 4.72627 | 74.88488 | 31013 ft | 456 kts | 72° |
| 2026-04-28 02:19 | 4.73584 | 74.91519 | 31301 ft | 457 kts | 73° |
| 2026-04-28 02:19 | 4.74507 | 74.94565 | 31596 ft | 457 kts | 73° |
| 2026-04-28 02:20 | 4.75416 | 74.97622 | 31843 ft | 459 kts | 73° |
| 2026-04-28 02:20 | 4.76371 | 75.00666 | 32209 ft | 457 kts | 73° |
| 2026-04-28 02:20 | 4.77332 | 75.03692 | 32638 ft | 454 kts | 73° |
| 2026-04-28 02:20 | 4.78276 | 75.06702 | 33062 ft | 451 kts | 73° |
| 2026-04-28 02:21 | 4.79180 | 75.09699 | 33452 ft | 449 kts | 74° |
| 2026-04-28 02:21 | 4.80082 | 75.12688 | 33815 ft | 447 kts | 73° |
| 2026-04-28 02:21 | 4.81010 | 75.15654 | 34153 ft | 445 kts | 73° |
| 2026-04-28 02:21 | 4.81937 | 75.18605 | 34504 ft | 442 kts | 73° |
| 2026-04-28 02:22 | 4.82835 | 75.21543 | 34796 ft | 441 kts | 73° |
| 2026-04-28 02:22 | 4.83428 | 75.23494 | 34957 ft | 441 kts | 73° |
| 2026-04-28 02:22 | 4.84349 | 75.26419 | 35218 ft | 440 kts | 73° |
| 2026-04-28 02:22 | 4.85283 | 75.29339 | 35493 ft | 439 kts | 73° |
| 2026-04-28 02:23 | 4.86200 | 75.32242 | 35835 ft | 436 kts | 73° |
| 2026-04-28 02:23 | 4.87071 | 75.35152 | 36054 ft | 436 kts | 73° |
| 2026-04-28 02:23 | 4.87936 | 75.38055 | 36386 ft | 433 kts | 73° |
| 2026-04-28 02:23 | 4.88818 | 75.40927 | 36713 ft | 430 kts | 72° |
| 2026-04-28 02:24 | 4.89726 | 75.43779 | 36959 ft | 429 kts | 72° |
| 2026-04-28 02:24 | 4.90637 | 75.46626 | 37201 ft | 428 kts | 72° |
| 2026-04-28 02:24 | 4.91532 | 75.49465 | 37436 ft | 427 kts | 73° |
| 2026-04-28 02:24 | 4.92394 | 75.52322 | 37567 ft | 429 kts | 74° |
| 2026-04-28 02:25 | 4.93248 | 75.55191 | 37656 ft | 431 kts | 73° |
| 2026-04-28 02:25 | 4.94147 | 75.58062 | 37847 ft | 431 kts | 73° |
| 2026-04-28 02:25 | 4.95025 | 75.60932 | 38065 ft | 430 kts | 73° |
| 2026-04-28 02:25 | 4.95890 | 75.63798 | 38292 ft | 429 kts | 73° |
| 2026-04-28 02:26 | 4.96768 | 75.66647 | 38531 ft | 427 kts | 73° |
| 2026-04-28 02:26 | 4.97658 | 75.69487 | 38724 ft | 426 kts | 73° |
| 2026-04-28 02:26 | 4.98552 | 75.72311 | 38890 ft | 425 kts | 73° |
| 2026-04-28 02:27 | 5.00269 | 75.77972 | 38731 ft | 424 kts | 74° |
| 2026-04-28 02:27 | 5.01982 | 75.83627 | 38839 ft | 424 kts | 73° |
| 2026-04-28 02:28 | 5.03694 | 75.89276 | 38838 ft | 423 kts | 73° |
| 2026-04-28 02:28 | 5.05454 | 75.94912 | 38848 ft | 424 kts | 73° |
| 2026-04-28 02:29 | 5.07199 | 76.00555 | 38846 ft | 424 kts | 73° |
| 2026-04-28 02:29 | 5.08935 | 76.06197 | 38854 ft | 424 kts | 73° |
| 2026-04-28 02:30 | 5.10669 | 76.11845 | 38849 ft | 424 kts | 73° |
| 2026-04-28 02:30 | 5.12406 | 76.17494 | 38851 ft | 424 kts | 73° |
| 2026-04-28 02:31 | 5.14141 | 76.23140 | 38848 ft | 424 kts | 73° |
| 2026-04-28 02:31 | 5.15877 | 76.28790 | 38849 ft | 424 kts | 73° |
| 2026-04-28 02:32 | 5.17614 | 76.34446 | 38856 ft | 424 kts | 73° |
| 2026-04-28 02:32 | 5.19340 | 76.40067 | 38857 ft | 425 kts | 73° |
| 2026-04-28 02:33 | 5.21078 | 76.45728 | 38847 ft | 425 kts | 73° |
| 2026-04-28 02:33 | 5.22817 | 76.51398 | 38851 ft | 425 kts | 73° |
| 2026-04-28 02:34 | 5.24558 | 76.57072 | 38856 ft | 426 kts | 73° |
| 2026-04-28 02:34 | 5.26298 | 76.62749 | 38859 ft | 426 kts | 73° |
| 2026-04-28 02:35 | 5.28041 | 76.68434 | 38854 ft | 426 kts | 73° |
| 2026-04-28 02:35 | 5.29783 | 76.74123 | 38855 ft | 427 kts | 73° |
| 2026-04-28 02:36 | 5.31527 | 76.79815 | 38858 ft | 427 kts | 73° |
| 2026-04-28 02:36 | 5.33269 | 76.85505 | 38859 ft | 427 kts | 73° |
| 2026-04-28 02:37 | 5.35011 | 76.91196 | 38858 ft | 427 kts | 73° |
| 2026-04-28 02:37 | 5.36751 | 76.96885 | 38859 ft | 426 kts | 73° |
| 2026-04-28 02:38 | 5.38491 | 77.02574 | 38858 ft | 426 kts | 73° |
| 2026-04-28 02:38 | 5.40228 | 77.08257 | 38856 ft | 426 kts | 73° |
| 2026-04-28 02:39 | 5.41966 | 77.13944 | 38855 ft | 426 kts | 73° |
| 2026-04-28 02:39 | 5.43702 | 77.19626 | 38862 ft | 426 kts | 73° |
| 2026-04-28 02:40 | 5.45435 | 77.25300 | 38860 ft | 425 kts | 73° |
| 2026-04-28 02:40 | 5.47167 | 77.30972 | 38859 ft | 425 kts | 73° |
| 2026-04-28 02:41 | 5.48886 | 77.36608 | 38864 ft | 425 kts | 73° |
| 2026-04-28 02:41 | 5.50615 | 77.42275 | 38863 ft | 424 kts | 73° |
| 2026-04-28 02:42 | 5.52343 | 77.47940 | 38861 ft | 424 kts | 73° |
| 2026-04-28 02:42 | 5.54068 | 77.53598 | 38867 ft | 424 kts | 73° |
| 2026-04-28 02:43 | 5.55796 | 77.59268 | 38862 ft | 425 kts | 73° |
| 2026-04-28 02:43 | 5.57523 | 77.64938 | 38863 ft | 425 kts | 73° |
| 2026-04-28 02:44 | 5.59251 | 77.70616 | 38868 ft | 425 kts | 73° |
| 2026-04-28 02:44 | 5.60981 | 77.76298 | 38865 ft | 426 kts | 73° |
| 2026-04-28 02:45 | 5.62710 | 77.81981 | 38864 ft | 426 kts | 73° |
| 2026-04-28 02:45 | 5.64441 | 77.87673 | 38864 ft | 426 kts | 73° |
| 2026-04-28 02:46 | 5.66174 | 77.93373 | 38867 ft | 427 kts | 73° |
| 2026-04-28 02:46 | 5.68085 | 77.99015 | 38863 ft | 427 kts | 65° |
| 2026-04-28 02:47 | 5.71335 | 78.03998 | 38864 ft | 428 kts | 52° |
| 2026-04-28 02:47 | 5.75069 | 78.08676 | 38869 ft | 430 kts | 52° |
| 2026-04-28 02:48 | 5.78819 | 78.13368 | 38866 ft | 431 kts | 52° |
| 2026-04-28 02:48 | 5.82564 | 78.18070 | 38869 ft | 431 kts | 52° |
| 2026-04-28 02:49 | 5.86309 | 78.22780 | 38869 ft | 432 kts | 52° |
| 2026-04-28 02:49 | 5.90059 | 78.27498 | 38874 ft | 432 kts | 52° |
| 2026-04-28 02:50 | 5.93811 | 78.32221 | 38873 ft | 433 kts | 52° |
| 2026-04-28 02:50 | 5.97568 | 78.36950 | 38874 ft | 434 kts | 52° |
| 2026-04-28 02:51 | 6.01337 | 78.41698 | 38872 ft | 435 kts | 52° |
| 2026-04-28 02:51 | 6.05112 | 78.46453 | 38873 ft | 435 kts | 52° |
| 2026-04-28 02:52 | 6.08888 | 78.51211 | 38874 ft | 436 kts | 52° |
| 2026-04-28 02:52 | 6.10780 | 78.53594 | 38616 ft | 436 kts | 52° |
| 2026-04-28 02:52 | 6.12690 | 78.55968 | 37911 ft | 438 kts | 49° |
| 2026-04-28 02:52 | 6.14835 | 78.58141 | 37356 ft | 438 kts | 41° |
| 2026-04-28 02:53 | 6.17195 | 78.60082 | 36771 ft | 439 kts | 39° |
| 2026-04-28 02:53 | 6.19611 | 78.61972 | 36157 ft | 441 kts | 38° |
| 2026-04-28 02:53 | 6.22011 | 78.63833 | 35527 ft | 443 kts | 38° |
| 2026-04-28 02:53 | 6.24461 | 78.65735 | 34837 ft | 447 kts | 38° |
| 2026-04-28 02:54 | 6.26929 | 78.67653 | 34139 ft | 450 kts | 38° |
| 2026-04-28 02:54 | 6.29438 | 78.69607 | 33511 ft | 450 kts | 38° |
| 2026-04-28 02:54 | 6.31869 | 78.71501 | 33008 ft | 446 kts | 38° |
| 2026-04-28 02:54 | 6.34343 | 78.73430 | 32489 ft | 442 kts | 38° |
| 2026-04-28 02:55 | 6.36732 | 78.75293 | 31986 ft | 439 kts | 38° |
| 2026-04-28 02:55 | 6.39137 | 78.77171 | 31475 ft | 436 kts | 38° |
| 2026-04-28 02:55 | 6.41430 | 78.79158 | 30921 ft | 434 kts | 47° |
| 2026-04-28 02:55 | 6.43410 | 78.81419 | 30453 ft | 429 kts | 51° |
| 2026-04-28 02:56 | 6.45292 | 78.83741 | 29937 ft | 427 kts | 52° |
| 2026-04-28 02:56 | 6.47150 | 78.86065 | 29360 ft | 425 kts | 52° |
| 2026-04-28 02:56 | 6.48991 | 78.88369 | 28844 ft | 421 kts | 52° |
| 2026-04-28 02:56 | 6.50817 | 78.90651 | 28339 ft | 417 kts | 52° |
| 2026-04-28 02:57 | 6.52629 | 78.92913 | 27817 ft | 414 kts | 52° |
| 2026-04-28 02:57 | 6.54430 | 78.95158 | 27300 ft | 411 kts | 52° |
| 2026-04-28 02:57 | 6.56219 | 78.97389 | 26764 ft | 409 kts | 52° |
| 2026-04-28 02:57 | 6.57998 | 78.99606 | 26264 ft | 406 kts | 52° |
| 2026-04-28 02:58 | 6.59767 | 79.01810 | 25757 ft | 403 kts | 52° |
| 2026-04-28 02:58 | 6.61524 | 79.04001 | 25239 ft | 401 kts | 52° |
| 2026-04-28 02:58 | 6.63263 | 79.06188 | 24727 ft | 399 kts | 52° |
| 2026-04-28 02:58 | 6.64982 | 79.08375 | 24208 ft | 397 kts | 52° |
| 2026-04-28 02:59 | 6.66690 | 79.10553 | 23700 ft | 396 kts | 52° |
| 2026-04-28 02:59 | 6.68392 | 79.12724 | 23120 ft | 395 kts | 52° |
| 2026-04-28 02:59 | 6.70085 | 79.14884 | 22570 ft | 391 kts | 52° |
| 2026-04-28 02:59 | 6.71760 | 79.17020 | 22072 ft | 387 kts | 52° |
| 2026-04-28 03:00 | 6.73417 | 79.19132 | 21569 ft | 383 kts | 53° |
| 2026-04-28 03:00 | 6.75061 | 79.21229 | 21060 ft | 379 kts | 53° |
| 2026-04-28 03:00 | 6.76688 | 79.23305 | 20555 ft | 376 kts | 53° |
| 2026-04-28 03:00 | 6.78302 | 79.25362 | 20055 ft | 373 kts | 53° |
| 2026-04-28 03:01 | 6.79903 | 79.27404 | 19548 ft | 371 kts | 53° |
| 2026-04-28 03:01 | 6.81493 | 79.29432 | 19037 ft | 368 kts | 53° |
| 2026-04-28 03:01 | 6.83075 | 79.31451 | 18529 ft | 366 kts | 53° |
| 2026-04-28 03:01 | 6.84647 | 79.33457 | 18029 ft | 364 kts | 53° |
| 2026-04-28 03:02 | 6.86209 | 79.35451 | 17492 ft | 361 kts | 53° |
| 2026-04-28 03:02 | 6.87752 | 79.37422 | 17014 ft | 356 kts | 53° |
| 2026-04-28 03:02 | 6.89277 | 79.39369 | 16523 ft | 352 kts | 53° |
| 2026-04-28 03:02 | 6.90784 | 79.41295 | 16037 ft | 349 kts | 53° |
| 2026-04-28 03:03 | 6.92279 | 79.43203 | 15553 ft | 345 kts | 53° |
| 2026-04-28 03:03 | 6.93863 | 79.45017 | 15021 ft | 345 kts | 44° |
| 2026-04-28 03:03 | 6.95679 | 79.46576 | 14586 ft | 341 kts | 40° |
| 2026-04-28 03:03 | 6.97536 | 79.48051 | 14119 ft | 338 kts | 39° |
| 2026-04-28 03:04 | 6.99384 | 79.49500 | 13653 ft | 335 kts | 39° |
| 2026-04-28 03:04 | 7.01210 | 79.50934 | 13154 ft | 332 kts | 40° |
| 2026-04-28 03:04 | 7.03015 | 79.52357 | 12706 ft | 327 kts | 39° |
| 2026-04-28 03:04 | 7.04798 | 79.53764 | 12245 ft | 324 kts | 39° |
| 2026-04-28 03:05 | 7.06564 | 79.55159 | 11853 ft | 319 kts | 39° |
| 2026-04-28 03:05 | 7.08293 | 79.56527 | 11454 ft | 314 kts | 39° |
| 2026-04-28 03:05 | 7.10004 | 79.57880 | 11015 ft | 311 kts | 39° |
| 2026-04-28 03:05 | 7.11702 | 79.59223 | 10576 ft | 309 kts | 39° |
| 2026-04-28 03:06 | 7.13384 | 79.60555 | 10138 ft | 307 kts | 39° |
| 2026-04-28 03:06 | 7.15041 | 79.61866 | 9896 ft | 298 kts | 39° |
| 2026-04-28 03:06 | 7.16658 | 79.63146 | 9475 ft | 295 kts | 39° |
| 2026-04-28 03:06 | 7.18269 | 79.64422 | 9015 ft | 294 kts | 39° |
| 2026-04-28 03:07 | 7.19868 | 79.65688 | 8618 ft | 290 kts | 39° |
| 2026-04-28 03:07 | 7.21423 | 79.66919 | 8228 ft | 287 kts | 39° |
| 2026-04-28 03:07 | 7.22982 | 79.68153 | 7833 ft | 284 kts | 39° |
| 2026-04-28 03:07 | 7.24528 | 79.69379 | 7443 ft | 282 kts | 39° |
| 2026-04-28 03:08 | 7.26062 | 79.70598 | 7067 ft | 280 kts | 39° |
| 2026-04-28 03:08 | 7.27588 | 79.71811 | 6685 ft | 279 kts | 39° |
| 2026-04-28 03:08 | 7.29107 | 79.73019 | 6305 ft | 277 kts | 39° |
| 2026-04-28 03:08 | 7.30616 | 79.74219 | 6040 ft | 274 kts | 39° |
| 2026-04-28 03:09 | 7.32096 | 79.75390 | 5772 ft | 269 kts | 39° |
| 2026-04-28 03:09 | 7.33568 | 79.76554 | 5353 ft | 269 kts | 39° |
| 2026-04-28 03:09 | 7.35031 | 79.77711 | 4996 ft | 266 kts | 38° |
| 2026-04-28 03:09 | 7.35993 | 79.78472 | 4756 ft | 265 kts | 38° |
| 2026-04-28 03:10 | 7.37933 | 79.80005 | 4269 ft | 265 kts | 38° |
| 2026-04-28 03:10 | 7.38884 | 79.80774 | 3994 ft | 265 kts | 42° |
| 2026-04-28 03:10 | 7.40015 | 79.82198 | 3753 ft | 261 kts | 65° |
| 2026-04-28 03:10 | 7.40357 | 79.83956 | 3562 ft | 255 kts | 96° |
| 2026-04-28 03:11 | 7.39813 | 79.85600 | 3383 ft | 245 kts | 120° |
| 2026-04-28 03:11 | 7.38880 | 79.87027 | 3170 ft | 244 kts | 126° |
| 2026-04-28 03:11 | 7.37881 | 79.88404 | 2935 ft | 243 kts | 127° |
| 2026-04-28 03:11 | 7.36881 | 79.89776 | 2713 ft | 243 kts | 127° |
| 2026-04-28 03:12 | 7.35806 | 79.91080 | 2436 ft | 242 kts | 139° |
| 2026-04-28 03:12 | 7.34411 | 79.92026 | 1982 ft | 243 kts | 152° |
| 2026-04-28 03:12 | 7.32903 | 79.92779 | 1620 ft | 240 kts | 155° |
| 2026-04-28 03:12 | 7.31433 | 79.93478 | 1503 ft | 226 kts | 155° |
| 2026-04-28 03:13 | 7.30071 | 79.94126 | 1503 ft | 207 kts | 155° |
| 2026-04-28 03:13 | 7.28826 | 79.94719 | 1487 ft | 188 kts | 155° |
| 2026-04-28 03:13 | 7.27652 | 79.95072 | 1487 ft | 166 kts | 176° |
| 2026-04-28 03:13 | 7.26600 | 79.94841 | 1467 ft | 147 kts | 206° |
| 2026-04-28 03:14 | 7.25768 | 79.94285 | 1524 ft | 140 kts | 214° |
| 2026-04-28 03:14 | 7.25012 | 79.93704 | 1491 ft | 134 kts | 215° |
| 2026-04-28 03:14 | 7.24282 | 79.93117 | 1500 ft | 139 kts | 217° |
| 2026-04-28 03:14 | 7.23539 | 79.92472 | 1355 ft | 141 kts | 220° |
| 2026-04-28 03:15 | 7.22771 | 79.91888 | 1033 ft | 135 kts | 212° |
| 2026-04-28 03:15 | 7.21987 | 79.91360 | 729 ft | 133 kts | 218° |
| 2026-04-28 03:15 | 7.21287 | 79.90752 | 548 ft | 131 kts | 218° |
| 2026-04-28 03:15 | 7.20551 | 79.90201 | 369 ft | 133 kts | 212° |
| 2026-04-28 03:16 | 7.19795 | 79.89657 | 180 ft | 132 kts | 216° |
| 2026-04-28 03:16 | 7.19065 | 79.89098 | 44 ft | 130 kts | 217° |
| 2026-04-28 03:16 | 7.18433 | 79.88618 | 30 ft | 90 kts | 217° |
| 2026-04-28 03:16 | 7.18058 | 79.88333 | 32 ft | 40 kts | 218° |
| 2026-04-28 03:17 | 7.17892 | 79.88217 | 33 ft | 16 kts | 176° |
| 2026-04-28 03:17 | 7.17834 | 79.88260 | 32 ft | 0 kts | 127° |
| 2026-04-28 03:17 | 7.17832 | 79.88263 | 32 ft | 1 kts | 127° |
| 2026-04-28 03:18 | 7.17821 | 79.88279 | 32 ft | 4 kts | 126° |
| 2026-04-28 03:18 | 7.17797 | 79.88314 | 31 ft | 8 kts | 116° |
| 2026-04-28 03:18 | 7.17812 | 79.88368 | 31 ft | 9 kts | 43° |
| 2026-04-28 03:18 | 7.17854 | 79.88423 | 30 ft | 11 kts | 85° |
| 2026-04-28 03:19 | 7.17815 | 79.88492 | 30 ft | 12 kts | 127° |
| 2026-04-28 03:19 | 7.17762 | 79.88563 | 30 ft | 13 kts | 127° |
| 2026-04-28 03:19 | 7.17710 | 79.88628 | 30 ft | 8 kts | 147° |
| 2026-04-28 03:19 | 7.17682 | 79.88617 | 30 ft | 4 kts | 214° |
| 2026-04-28 03:20 | 7.17651 | 79.88594 | 30 ft | 8 kts | 217° |
| 2026-04-28 03:20 | 7.17630 | 79.88578 | 30 ft | 0 kts | 217° |
| 2026-04-28 03:20 | 7.17624 | 79.88574 | 30 ft | 2 kts | 217° |
| 2026-04-28 03:20 | 7.17622 | 79.88572 | 30 ft | 0 kts | 217° |